• Join FlightAware (Why Join?)
  • Login
  • US Flag 
09:14PM EST


 

Airport Tracker/Info


-or-


 

Live Flight TrackerFlight Track Log ✈ RPA3253 ✈ 24-Jul-2013 ✈ KALB - KCLT

Flight Track Log - Related Links

Times and Time Zones

All times are in EDT time to prevent confusion due to time zone crossing. See the RPA3253 flight status page for this flight to view local times or setup timezone preferences in your user account.

Time Position Orientation Groundspeed Altitude Reporting Facility
EDT Latitude Longitude Course Direction KTS MPH feet Rate Location/Type
07:39PM 42.7483 -73.8311 180° South 144 166 1,700  Level Boston Center
07:40PM 42.7536 -73.9075 275° West 216 249 3,900 2,100 Climbing Boston Center
07:41PM 42.5312 -74.0387 171° South  Level Estimated
07:41PM 42.7944 -73.9708 311° West 244 281 6,200  Level Boston Center
07:42PM 42.4585 -74.1172 180° South  Level Estimated
07:42PM 42.8475 -74.0458 314° West 255 293 9,900  Level Boston Center
07:43PM 42.3857 -74.1955 170° South  Level Estimated
07:43PM 42.8858 -74.1403 299° West 300 345 12,500  Level Boston Center
07:44PM 42.3129 -74.2737 180° South  Level Estimated
07:44PM 42.8100 -74.2006 210° Southwest 258 297 15,800  Level Boston Center
07:45PM 42.7267 -74.1925 176° South 281 323 18,300 2,460 Climbing Boston Center
07:46PM 42.6253 -74.1358 158° South 317 365 20,800 2,340 Climbing Boston Center
07:47PM 42.5428 -74.0831 155° Southeast 340 391 23,000 2,160 Climbing Boston Center
07:48PM 42.4478 -74.0214 154° Southeast 362 417 25,200 1,980 Climbing Boston Center
07:49PM 42.3483 -73.9739 161° South 374 430 27,000 1,860 Climbing Boston Center
07:50PM 42.2333 -74.0047 191° South 373 429 29,000 1,680 Climbing Boston Center
07:51PM 42.1308 -74.0331 192° South 378 435 30,400 1,500 Climbing Boston Center
07:52PM 42.0283 -74.0639 193° South 378 435 32,100 1,320 Climbing Boston Center
07:54PM 41.8389 -74.1119 191° South 364 419 34,400 1,140 Climbing New York Center
07:55PM 41.7383 -74.1375 191° South 369 425 35,600 900 Climbing New York Center
07:56PM 41.6397 -74.1658 192° South 369 425 36,300 600 Climbing New York Center
07:57PM 41.5431 -74.1942 192° South 374 430 36,900 660 Climbing New York Center
07:58PM 41.4403 -74.2219 191° South 374 430 37,700 540 Climbing New York Center
07:59PM 41.3372 -74.2525 193° South 374 430 38,000 120 Climbing New York Center
08:00PM 41.2197 -74.2797 190° South 389 448 38,000  Level New York Center
08:01PM 41.1147 -74.3100 192° South 389 448 38,000  Level New York Center
08:02PM 41.0214 -74.3683 205° Southwest 374 430 38,000  Level New York Center
08:03PM 40.9417 -74.4519 218° Southwest 374 430 38,000  Level New York Center
08:04PM 40.8578 -74.5353 217° Southwest 374 430 38,000  Level New York Center
08:05PM 40.7761 -74.6183 218° Southwest 379 436 38,000  Level New York Center
08:06PM 40.6919 -74.7014 217° Southwest 379 436 38,000  Level New York Center
08:07PM 40.6100 -74.7842 217° Southwest 379 436 38,000  Level New York Center
08:08PM 40.5281 -74.8694 218° Southwest 379 436 38,000  Level New York Center
08:09PM 40.4458 -74.9492 216° Southwest 379 436 38,000  Level New York Center
08:10PM 40.3694 -75.0453 224° Southwest 379 436 38,000  Level New York Center
08:11PM 40.2992 -75.1442 227° Southwest 379 436 38,000  Level New York Center
08:12PM 40.2286 -75.2486 229° Southwest 379 436 38,000  Level New York Center
08:13PM 40.1581 -75.3472 227° Southwest 384 442 38,000  Level New York Center
08:14PM 40.0919 -75.4378 226° Southwest 379 436 38,000  Level New York Center
08:15PM 40.0194 -75.5361 226° Southwest 379 436 38,000  Level New York Center
08:16PM 39.9486 -75.6342 227° Southwest 384 442 38,000  Level New York Center
08:17PM 39.8794 -75.7403 230° Southwest 384 442 38,000  Level New York Center
08:19PM 39.7519 -75.9472 231° Southwest 379 436 38,000  Level New York Center
08:20PM 39.6867 -76.0503 231° Southwest 374 430 38,000  Level New York Center
08:21PM 39.5619 -76.2403 230° Southwest 378 435 38,000  Level Washington Center
08:22PM 39.4925 -76.3444 229° Southwest 378 435 38,000  Level Washington Center
08:23PM 39.4250 -76.4458 229° Southwest 378 435 38,000  Level Washington Center
08:24PM 39.3639 -76.5419 231° Southwest 378 435 38,000  Level Washington Center
08:25PM 39.2986 -76.6483 232° Southwest 378 435 38,000  Level Washington Center
08:26PM 39.2328 -76.7544 231° Southwest 378 435 38,000  Level Washington Center
08:27PM 39.1653 -76.8606 231° Southwest 378 435 38,000  Level Washington Center
08:28PM 39.1056 -76.9719 235° Southwest 378 435 38,000  Level Washington Center
08:29PM 39.0481 -77.0856 237° Southwest 385 443 38,000  Level Washington Center
08:30PM 38.9839 -77.2100 236° Southwest 391 450 38,000  Level Washington Center
08:31PM 38.9325 -77.3103 237° Southwest 391 450 38,000  Level Washington Center
08:32PM 38.8744 -77.4208 236° Southwest 386 444 38,000  Level Washington Center
08:33PM 38.8144 -77.5286 234° Southwest 386 444 38,000  Level Washington Center
08:34PM 38.7561 -77.6494 238° Southwest 392 451 38,000  Level Washington Center
08:35PM 38.6894 -77.7725 235° Southwest 397 457 38,000  Level Washington Center
08:36PM 38.6331 -77.8853 237° Southwest 386 444 38,000  Level Washington Center
08:37PM 38.5744 -77.9978 236° Southwest 386 444 38,000  Level Washington Center
08:38PM 38.5181 -78.1072 237° Southwest 386 444 38,000  Level Washington Center
08:39PM 38.4594 -78.2167 236° Southwest 386 444 38,000  Level Washington Center
08:40PM 38.4006 -78.3286 236° Southwest 386 444 38,000  Level Washington Center
08:41PM 38.3417 -78.4403 236° Southwest 386 444 38,000  Level Washington Center
08:42PM 38.2828 -78.5517 236° Southwest 386 444 38,000  Level Washington Center
08:43PM 38.2367 -78.6478 239° Southwest 377 434 38,000  Level Washington Center
08:44PM 38.1753 -78.7586 235° Southwest 382 440 38,000  Level Washington Center
08:45PM 38.1161 -78.8697 236° Southwest 382 440 38,000  Level Washington Center
08:46PM 38.0522 -78.9856 235° Southwest 382 440 38,000  Level Washington Center
08:47PM 37.9928 -79.0961 236° Southwest 382 440 38,000  Level Washington Center
08:48PM 37.9353 -79.2042 236° Southwest 382 440 38,000  Level Washington Center
08:49PM 37.8803 -79.3014 234° Southwest 382 440 38,000  Level Washington Center
08:50PM 37.8225 -79.4092 236° Southwest 382 440 38,000  Level Washington Center
08:51PM 37.7628 -79.5189 235° Southwest 382 440 38,000  Level Washington Center
08:52PM 37.6964 -79.6336 234° Southwest 382 440 38,000  Level Washington Center
08:53PM 37.6289 -79.7167 224° Southwest 377 434 38,000 -480 Level Washington Center
08:54PM 37.5108 -79.7547 194° South 382 440 37,100 -900 Descending Washington Center
08:55PM 37.4078 -79.7806 191° South 407 468 36,200 -1,020 Descending Washington Center
08:56PM 37.2942 -79.8031 189° South 420 483 35,100 -1,200 Descending Washington Center
08:57PM 37.1800 -79.8461 197° South 413 475 33,800 -1,200 Descending Washington Center
08:58PM 37.0761 -79.8925 200° South 407 468 32,800 -1,200 Descending Washington Center
08:59PM 36.9700 -79.9386 199° South 402 463 31,500 -1,860 Descending Washington Center
09:00PM 36.8769 -79.9800 200° South 402 463 29,100 -2,520 Descending Washington Center
09:01PM 36.7731 -80.0233 198° South 402 463 26,600 -2,700 Descending Washington Center
09:03PM 36.6306 -80.0808 198° South 382 440 23,200 -2,040 Descending Atlanta Center
09:04PM 36.5339 -80.1244 200° South 377 434 22,000 -600 Descending Atlanta Center
09:05PM 36.4475 -80.1647 201° Southwest 377 434 22,000 -300 Level Atlanta Center
09:06PM 36.3642 -80.2333 214° Southwest 365 420 21,400 -4,500 Descending Atlanta Center
09:07PM 36.2767 -80.2967 210° Southwest 359 413 13,000 -2,220 Descending Atlanta Center
09:08PM 36.1825 -80.3628 210° Southwest 359 413 17,000 1,020 Climbing Atlanta Center
09:09PM 36.0989 -80.4231 210° Southwest 359 413 15,100 -1,980 Descending Atlanta Center
09:10PM 36.0150 -80.4833 210° Southwest 359 413 13,100 -1,080 Descending Atlanta Center
09:11PM 35.9436 -80.5353 211° Southwest 323 372 13,100 -60 Level Atlanta Center
09:12PM 35.8639 -80.5897 209° Southwest 320 368 13,000 -360 Descending Atlanta Center
09:13PM 35.7992 -80.6694 225° Southwest 302 348 12,400 -1,200 Descending Atlanta Center
09:14PM 35.7372 -80.6897 195° South 303 349 10,600 -1,920 Descending Atlanta Center
09:15PM 35.6458 -80.7089 190° South 295 339 8,500 -1,920 Descending Atlanta Center
09:16PM 35.6333 -80.7836 258° West 247 284 6,800 -1,920 Descending Atlanta Center
09:17PM 35.5983 -80.8844 247° West 270 311 4,600 -1,440 Descending Atlanta Center
09:18PM 35.5792 -80.9467 249° West 257 296 4,000 -360 Descending Atlanta Center
09:19PM 35.5128 -80.9669 194° South 210 242 4,000  Level Atlanta Center
09:20PM 35.4500 -80.9592 174° South 205 236 4,000 -180 Level Atlanta Center
09:21PM 35.3769 -80.9542 177° South 226 260 3,700 -660 Descending Atlanta Center
09:22PM 35.3206 -80.9486 175° South 208 239 2,600 -1,140 Descending Atlanta Center